This is the latest recevied weather packets stored in our database for station/object ANJALA. If no packets are shown the sender has not sent any weather packets the latest 10 day(s).
| Time | Temp. | Humidity | Pressure | Rain* | Wind** | Luminosity | Snow |
|---|---|---|---|---|---|---|---|
| 1777871228 | 10.56° C | 73% | - | 0 mm | - | - | - |
| 1777870028 | 10.56° C | 74% | - | 0 mm | - | - | - |
| 1777868828 | 10.56° C | 71% | - | 0 mm | - | - | - |
| 1777867628 | 9.44° C | 81% | - | 0 mm | - | - | - |
| 1777866428 | 8.89° C | 85% | - | 0 mm | - | - | - |
| 1777865228 | 8.33° C | 85% | - | 0 mm | - | - | - |
| 1777864028 | 8.89° C | 85% | - | 0 mm | - | - | - |
| 1777862828 | 8.89° C | 84% | - | 0 mm | - | - | - |
| 1777861628 | 8.89° C | 85% | - | 0 mm | - | - | - |
| 1777860428 | 8.89° C | 86% | - | 0 mm | - | - | - |
| 1777859228 | 8.89° C | 87% | - | 0 mm | - | - | - |
| 1777858028 | 8.89° C | 87% | - | 0 mm | - | - | - |
| 1777856828 | 9.44° C | 86% | - | 0 mm | - | - | - |
| 1777855628 | 9.44° C | 85% | - | 0 mm | - | - | - |
| 1777854428 | 8.89° C | 88% | - | 0 mm | - | - | - |
| 1777853227 | 8.89° C | 86% | - | 0 mm | - | - | - |
| 1777852027 | 9.44° C | 83% | - | 0 mm | - | - | - |
| 1777850827 | 9.44° C | 87% | - | 0 mm | - | - | - |
| 1777849627 | 9.44° C | 89% | - | 0 mm | - | - | - |
| 1777848427 | 9.44° C | 89% | - | 0 mm | - | - | - |
| 1777847227 | 9.44° C | 88% | - | 0 mm | - | - | - |
| 1777846027 | 9.44° C | 88% | - | 0 mm | - | - | - |
| 1777844827 | 9.44° C | 83% | - | 0 mm | - | - | - |
| 1777843627 | 10° C | 79% | - | 0 mm | - | - | - |
| 1777842427 | 10° C | 80% | - | 0 mm | - | - | - |
* Rain latest hour (hover to see other rain measurements)
** Current wind speed in m/s (hover to see current wind gust speed)